Time,TemperatureF,DewpointF,PressureIn,WindDirection,WindDirectionDegrees,WindSpeedMPH,WindSpeedGustMPH,Humidity,HourlyPrecipIn,Conditions,Clouds,dailyrainin,SolarRadiationWatts/m^2,SoftwareType,DateUTC
2013-03-21 00:03:00,24.0,17.0,-100.00,West,274,5.0,12.0,75,0.00,,,0.30,0.000000,,2013-03-21 04:03:00,
2013-03-21 00:13:00,24.0,17.0,-100.00,West,274,5.0,12.0,75,0.00,,,0.30,0.000000,,2013-03-21 04:13:00,
2013-03-21 00:23:00,24.0,17.0,-100.00,West,274,5.0,12.0,75,0.00,,,0.30,0.000000,,2013-03-21 04:23:00,
2013-03-21 00:53:00,23.0,16.0,-100.00,West,266,5.0,11.0,74,0.00,,,0.30,0.000000,,2013-03-21 04:53:00,
2013-03-21 01:03:00,23.0,16.0,-100.00,West,266,5.0,11.0,74,0.00,,,0.30,0.000000,,2013-03-21 05:03:00,
2013-03-21 01:13:00,23.0,16.0,-100.00,West,266,5.0,11.0,74,0.00,,,0.30,0.000000,,2013-03-21 05:13:00,
2013-03-21 01:22:00,23.0,16.0,-100.00,West,266,5.0,11.0,74,0.00,,,0.30,0.000000,,2013-03-21 05:22:00,
2013-03-21 01:52:00,22.0,14.0,-100.00,West,269,5.0,12.0,72,0.00,,,0.30,0.000000,,2013-03-21 05:52:00,
2013-03-21 02:03:00,22.0,14.0,-100.00,West,269,5.0,12.0,72,0.00,,,0.30,0.000000,,2013-03-21 06:03:00,
2013-03-21 02:12:00,22.0,14.0,-100.00,West,269,5.0,12.0,72,0.00,,,0.30,0.000000,,2013-03-21 06:12:00,
2013-03-21 02:22:00,22.0,14.0,-100.00,West,269,5.0,12.0,72,0.00,,,0.30,0.000000,,2013-03-21 06:22:00,
2013-03-21 02:52:00,22.0,14.0,-100.00,WNW,282,4.0,10.0,71,0.00,,,0.30,0.000000,,2013-03-21 06:52:00,
2013-03-21 03:02:00,22.0,14.0,-100.00,WNW,282,4.0,10.0,71,0.00,,,0.30,0.000000,,2013-03-21 07:02:00,
2013-03-21 03:13:00,22.0,14.0,-100.00,WNW,282,4.0,10.0,71,0.00,,,0.30,0.000000,,2013-03-21 07:13:00,
2013-03-21 03:22:00,22.0,14.0,-100.00,WNW,282,4.0,10.0,71,0.00,,,0.30,0.000000,,2013-03-21 07:22:00,
2013-03-21 03:53:00,22.0,13.0,-100.00,West,276,3.0,9.0,67,0.00,,,0.30,0.000000,,2013-03-21 07:53:00,
2013-03-21 04:02:00,22.0,13.0,-100.00,West,276,3.0,9.0,67,0.00,,,0.30,0.000000,,2013-03-21 08:02:00,
2013-03-21 04:13:00,22.0,13.0,-100.00,West,276,3.0,9.0,67,0.00,,,0.30,0.000000,,2013-03-21 08:13:00,
2013-03-21 04:23:00,22.0,13.0,-100.00,West,276,3.0,9.0,67,0.00,,,0.30,0.000000,,2013-03-21 08:23:00,
2013-03-21 04:52:00,20.0,12.0,-100.00,WNW,289,3.0,8.0,70,0.00,,,0.30,0.000000,,2013-03-21 08:52:00,
2013-03-21 05:02:00,20.0,12.0,-100.00,WNW,289,3.0,8.0,70,0.00,,,0.30,0.000000,,2013-03-21 09:02:00,
2013-03-21 05:11:00,20.0,12.0,-100.00,WNW,289,3.0,8.0,70,0.00,,,0.30,0.000000,,2013-03-21 09:11:00,
2013-03-21 05:22:00,20.0,12.0,-100.00,WNW,289,3.0,8.0,70,0.00,,,0.30,0.000000,,2013-03-21 09:22:00,
2013-03-21 05:53:00,16.0,11.0,-100.00,SE,132,1.0,8.0,81,0.00,,,0.30,0.000000,,2013-03-21 09:53:00,
2013-03-21 06:03:00,16.0,11.0,-100.00,SE,132,1.0,8.0,81,0.00,,,0.30,0.000000,,2013-03-21 10:03:00,
2013-03-21 06:12:00,16.0,11.0,-100.00,SE,132,1.0,8.0,81,0.00,,,0.30,0.000000,,2013-03-21 10:12:00,
2013-03-21 06:23:00,16.0,11.0,-100.00,SE,132,1.0,8.0,81,0.00,,,0.30,0.000000,,2013-03-21 10:23:00,
2013-03-21 06:53:00,11.0,7.0,-100.00,SE,124,2.0,6.0,84,0.00,,,0.30,0.000000,,2013-03-21 10:53:00,
2013-03-21 07:03:00,11.0,7.0,-100.00,SE,124,2.0,6.0,84,0.00,,,0.30,0.000000,,2013-03-21 11:03:00,
2013-03-21 07:13:00,11.0,7.0,-100.00,SE,124,2.0,6.0,84,0.00,,,0.30,0.000000,,2013-03-21 11:13:00,
2013-03-21 07:23:00,11.0,7.0,-100.00,SE,124,2.0,6.0,84,0.00,,,0.30,0.000000,,2013-03-21 11:23:00,
2013-03-21 07:53:00,11.0,7.0,-100.00,East,88,2.0,5.0,85,0.00,,,0.30,5.000000,,2013-03-21 11:53:00,
2013-03-21 08:03:00,11.0,7.0,-100.00,East,88,2.0,5.0,85,0.00,,,0.30,5.000000,,2013-03-21 12:03:00,
2013-03-21 08:13:00,11.0,7.0,-100.00,East,88,2.0,5.0,85,0.00,,,0.30,5.000000,,2013-03-21 12:13:00,
2013-03-21 08:22:00,11.0,7.0,-100.00,East,88,2.0,5.0,85,0.00,,,0.30,5.000000,,2013-03-21 12:22:00,
2013-03-21 08:53:00,17.0,11.0,-100.00,East,100,3.0,7.0,76,0.00,,,0.30,42.000000,,2013-03-21 12:53:00,
2013-03-21 09:03:00,17.0,11.0,-100.00,East,100,3.0,7.0,76,0.00,,,0.30,42.000000,,2013-03-21 13:03:00,
2013-03-21 09:12:00,17.0,11.0,-100.00,East,100,3.0,7.0,76,0.00,,,0.30,42.000000,,2013-03-21 13:12:00,
2013-03-21 09:22:00,17.0,11.0,-100.00,East,100,3.0,7.0,76,0.00,,,0.30,42.000000,,2013-03-21 13:22:00,
2013-03-21 09:53:00,26.0,11.0,-100.00,SSW,197,4.0,11.0,52,0.00,,,0.30,151.000000,,2013-03-21 13:53:00,
2013-03-21 10:02:00,26.0,11.0,-100.00,SSW,197,4.0,11.0,52,0.00,,,0.30,151.000000,,2013-03-21 14:02:00,
2013-03-21 10:12:00,26.0,11.0,-100.00,SSW,197,4.0,11.0,52,0.00,,,0.30,151.000000,,2013-03-21 14:12:00,
2013-03-21 10:22:00,26.0,11.0,-100.00,SSW,197,4.0,11.0,52,0.00,,,0.30,151.000000,,2013-03-21 14:22:00,
2013-03-21 10:52:00,29.0,9.0,-100.00,SW,215,5.0,12.0,43,0.00,,,0.30,185.000000,,2013-03-21 14:52:00,
2013-03-21 11:04:00,29.0,9.0,-100.00,SW,215,5.0,12.0,43,0.00,,,0.30,185.000000,,2013-03-21 15:04:00,
2013-03-21 11:12:00,29.0,9.0,-100.00,SW,215,5.0,12.0,43,0.00,,,0.30,185.000000,,2013-03-21 15:12:00,
2013-03-21 11:22:00,29.0,9.0,-100.00,SW,215,5.0,12.0,43,0.00,,,0.30,185.000000,,2013-03-21 15:22:00,
2013-03-21 11:53:00,30.0,10.0,-100.00,SW,223,5.0,12.0,43,0.00,,,0.30,328.000000,,2013-03-21 15:53:00,
2013-03-21 12:03:00,30.0,10.0,-100.00,SW,223,5.0,12.0,43,0.00,,,0.30,328.000000,,2013-03-21 16:03:00,
2013-03-21 12:12:00,30.0,10.0,-100.00,SW,223,5.0,12.0,43,0.00,,,0.30,328.000000,,2013-03-21 16:12:00,
2013-03-21 12:23:00,30.0,10.0,-100.00,SW,223,5.0,12.0,43,0.00,,,0.30,328.000000,,2013-03-21 16:23:00,
2013-03-21 12:53:00,34.0,11.0,-100.00,South,188,4.0,11.0,37,0.01,,,0.27,310.000000,,2013-03-21 16:53:00,
2013-03-21 13:03:00,34.0,11.0,-100.00,South,188,4.0,11.0,37,0.01,,,0.27,310.000000,,2013-03-21 17:03:00,
2013-03-21 13:12:00,34.0,11.0,-100.00,South,188,4.0,11.0,37,0.01,,,0.27,310.000000,,2013-03-21 17:12:00,
2013-03-21 13:23:00,34.0,11.0,-100.00,South,188,4.0,11.0,37,0.01,,,0.27,310.000000,,2013-03-21 17:23:00,
2013-03-21 13:53:00,31.0,11.0,-100.00,WNW,295,5.0,11.0,42,0.13,,,0.31,306.000000,,2013-03-21 17:53:00,
2013-03-21 14:02:00,31.0,11.0,-100.00,WNW,295,5.0,11.0,42,0.13,,,0.31,306.000000,,2013-03-21 18:02:00,
2013-03-21 14:12:00,31.0,11.0,-100.00,WNW,295,5.0,11.0,42,0.13,,,0.31,306.000000,,2013-03-21 18:12:00,
2013-03-21 14:23:00,31.0,11.0,-100.00,WNW,295,5.0,11.0,42,0.13,,,0.31,306.000000,,2013-03-21 18:23:00,
2013-03-21 14:52:00,37.0,10.0,-100.00,West,266,5.0,10.0,32,0.00,,,0.22,497.000000,,2013-03-21 18:52:00,
2013-03-21 15:02:00,37.0,10.0,-100.00,West,266,5.0,10.0,32,0.00,,,0.22,497.000000,,2013-03-21 19:02:00,
2013-03-21 15:12:00,37.0,10.0,-100.00,West,266,5.0,10.0,32,0.00,,,0.22,497.000000,,2013-03-21 19:12:00,
2013-03-21 15:22:00,37.0,10.0,-100.00,West,266,5.0,10.0,32,0.00,,,0.22,497.000000,,2013-03-21 19:22:00,
2013-03-21 15:53:00,34.0,10.0,-100.00,West,269,4.0,11.0,36,0.00,,,0.18,536.000000,,2013-03-21 19:53:00,
2013-03-21 16:02:00,34.0,10.0,-100.00,West,269,4.0,11.0,36,0.00,,,0.18,536.000000,,2013-03-21 20:02:00,
2013-03-21 16:13:00,34.0,10.0,-100.00,West,269,4.0,11.0,36,0.00,,,0.18,536.000000,,2013-03-21 20:13:00,
2013-03-21 16:23:00,34.0,10.0,-100.00,West,269,4.0,11.0,36,0.00,,,0.18,536.000000,,2013-03-21 20:23:00,
2013-03-21 16:53:00,40.0,11.0,-100.00,NW,308,4.0,10.0,30,0.00,,,0.15,323.000000,,2013-03-21 20:53:00,
2013-03-21 17:03:00,40.0,11.0,-100.00,NW,308,4.0,10.0,30,0.00,,,0.15,323.000000,,2013-03-21 21:03:00,
2013-03-21 17:12:00,40.0,11.0,-100.00,NW,308,4.0,10.0,30,0.00,,,0.15,323.000000,,2013-03-21 21:12:00,
2013-03-21 17:22:00,40.0,11.0,-100.00,NW,308,4.0,10.0,30,0.00,,,0.15,323.000000,,2013-03-21 21:22:00,
2013-03-21 17:53:00,32.0,10.0,-100.00,NNW,327,3.0,9.0,40,0.00,,,0.14,173.000000,,2013-03-21 21:53:00,
2013-03-21 18:03:00,32.0,10.0,-100.00,NNW,327,3.0,9.0,40,0.00,,,0.14,173.000000,,2013-03-21 22:03:00,
2013-03-21 18:13:00,32.0,10.0,-100.00,NNW,327,3.0,9.0,40,0.00,,,0.14,173.000000,,2013-03-21 22:13:00,
2013-03-21 18:23:00,32.0,10.0,-100.00,NNW,327,3.0,9.0,40,0.00,,,0.14,173.000000,,2013-03-21 22:23:00,
2013-03-21 18:53:00,30.0,10.0,-100.00,NW,321,3.0,7.0,43,0.00,,,0.14,59.000000,,2013-03-21 22:53:00,
2013-03-21 19:02:00,30.0,10.0,-100.00,NW,321,3.0,7.0,43,0.00,,,0.14,59.000000,,2013-03-21 23:02:00,
2013-03-21 19:12:00,30.0,10.0,-100.00,NW,321,3.0,7.0,43,0.00,,,0.14,59.000000,,2013-03-21 23:12:00,
2013-03-21 19:22:00,30.0,10.0,-100.00,NW,321,3.0,7.0,43,0.00,,,0.14,59.000000,,2013-03-21 23:22:00,
2013-03-21 19:53:00,26.0,9.0,-100.00,WNW,291,2.0,7.0,49,0.00,,,0.14,9.000000,,2013-03-21 23:53:00,
2013-03-21 20:03:00,26.0,9.0,-100.00,WNW,291,2.0,7.0,49,0.00,,,0.14,9.000000,,2013-03-22 00:03:00,
2013-03-21 20:13:00,26.0,9.0,-100.00,WNW,291,2.0,7.0,49,0.00,,,0.14,9.000000,,2013-03-22 00:13:00,
2013-03-21 20:22:00,26.0,9.0,-100.00,WNW,291,2.0,7.0,49,0.00,,,0.14,9.000000,,2013-03-22 00:22:00,
2013-03-21 20:52:00,25.0,13.0,-100.00,WNW,285,1.0,4.0,61,0.00,,,0.14,0.000000,,2013-03-22 00:52:00,
2013-03-21 21:03:00,25.0,13.0,-100.00,WNW,285,1.0,4.0,61,0.00,,,0.14,0.000000,,2013-03-22 01:03:00,
2013-03-21 21:12:00,25.0,13.0,-100.00,WNW,285,1.0,4.0,61,0.00,,,0.14,0.000000,,2013-03-22 01:12:00,
2013-03-21 21:22:00,25.0,13.0,-100.00,WNW,285,1.0,4.0,61,0.00,,,0.14,0.000000,,2013-03-22 01:22:00,
2013-03-21 21:53:00,20.0,13.0,-100.00,SSE,161,1.0,3.0,74,0.00,,,0.14,0.000000,,2013-03-22 01:53:00,
2013-03-21 22:03:00,20.0,13.0,-100.00,SSE,161,1.0,3.0,74,0.00,,,0.14,0.000000,,2013-03-22 02:03:00,
2013-03-21 22:12:00,20.0,13.0,-100.00,SSE,161,1.0,3.0,74,0.00,,,0.14,0.000000,,2013-03-22 02:12:00,
2013-03-21 22:22:00,20.0,13.0,-100.00,SSE,161,1.0,3.0,74,0.00,,,0.14,0.000000,,2013-03-22 02:22:00,
2013-03-21 22:53:00,17.0,11.0,-100.00,SE,131,2.0,4.0,76,0.00,,,0.14,0.000000,,2013-03-22 02:53:00,
2013-03-21 23:02:00,17.0,11.0,-100.00,SE,131,2.0,4.0,76,0.00,,,0.14,0.000000,,2013-03-22 03:02:00,
2013-03-21 23:12:00,17.0,11.0,-100.00,SE,131,2.0,4.0,76,0.00,,,0.14,0.000000,,2013-03-22 03:12:00,
2013-03-21 23:22:00,17.0,11.0,-100.00,SE,131,2.0,4.0,76,0.00,,,0.14,0.000000,,2013-03-22 03:22:00,
2013-03-21 23:53:00,15.0,9.0,-100.00,SE,129,2.0,3.0,78,0.00,,,0.14,0.000000,,2013-03-22 03:53:00,